Time;durP1;ratioP1;P1;durP2;ratioP2;P2;SDS_P1;SDS_P2;PMS_P1;PMS_P2;Temp;Humidity;BMP_temperature;BMP_pressure;BME280_temperature;BME280_humidity;BME280_pressure;Samples;Min_cycle;Max_cycle;Signal;HPM_P1;HPM_P2
2022/09/11 00:01:55;;;;;;;14.15;3.70;;;;;;;23.61;57.58;100908.50;4974838;28;20050;-80
2022/09/11 00:04:22;;;;;;;9.60;3.03;;;;;;;23.87;57.29;100950.16;4991164;28;20140;-79
2022/09/11 00:06:49;;;;;;;14.48;4.00;;;;;;;23.87;57.63;100963.69;4990615;28;20607;-78
2022/09/11 00:09:16;;;;;;;9.15;3.55;;;;;;;23.76;57.84;100953.53;4990268;28;20756;-77
2022/09/11 00:11:46;;;;;;;9.52;3.80;;;;;;;23.79;58.55;100959.34;4990848;28;20417;-78
2022/09/11 00:14:13;;;;;;;13.32;4.60;;;;;;;23.75;58.88;100958.13;4990948;28;20054;-76
2022/09/11 00:16:43;;;;;;;19.10;4.50;;;;;;;23.44;59.51;100918.19;4990702;28;20425;-76
2022/09/11 00:19:16;;;;;;;15.85;3.80;;;;;;;23.46;59.63;100932.34;4990941;28;20165;-78
2022/09/11 00:21:44;;;;;;;10.60;3.47;;;;;;;23.46;59.88;100943.19;5007673;28;20045;-78
2022/09/11 00:24:12;;;;;;;10.90;4.07;;;;;;;23.52;60.21;100958.59;5007668;28;20149;-78
2022/09/11 00:26:39;;;;;;;7.75;3.97;;;;;;;23.46;60.26;100967.56;5008122;28;20058;-78
2022/09/11 00:29:06;;;;;;;10.52;4.38;;;;;;;23.33;60.65;100943.22;4991003;28;20053;-77
2022/09/11 00:31:33;;;;;;;18.65;3.90;;;;;;;23.48;60.74;100973.59;4990506;28;20283;-77
2022/09/11 00:34:00;;;;;;;4.72;3.67;;;;;;;23.30;60.74;100946.34;4991222;28;20054;-78
2022/09/11 00:36:34;;;;;;;12.98;4.97;;;;;;;23.50;60.62;100976.09;4990433;28;20137;-77
2022/09/11 00:39:01;;;;;;;11.27;4.28;;;;;;;23.16;61.03;100921.19;4990484;28;20048;-77
2022/09/11 00:41:40;;;;;;;17.30;4.13;;;;;;;23.51;60.85;100967.75;4990824;28;20079;-77
2022/09/11 00:44:27;;;;;;;13.25;3.88;;;;;;;23.53;60.58;100962.13;4991193;28;20397;-79
2022/09/11 00:46:59;;;;;;;14.15;3.80;;;;;;;23.50;60.49;100955.25;4977048;28;20048;-77
2022/09/11 00:49:39;;;;;;;9.55;3.67;;;;;;;23.43;58.84;100944.44;5007539;28;20069;-76
2022/09/11 00:52:16;;;;;;;14.80;3.83;;;;;;;23.57;58.33;100972.34;4990466;28;20561;-78
2022/09/11 00:54:49;;;;;;;10.23;3.22;;;;;;;23.47;57.75;100961.09;4989254;28;20054;-78
2022/09/11 00:57:20;;;;;;;6.18;2.67;;;;;;;23.55;56.84;100971.72;4989370;28;20144;-79
2022/09/11 00:59:49;;;;;;;4.60;2.40;;;;;;;23.47;56.82;100966.50;4989021;28;20421;-77
2022/09/11 01:02:19;;;;;;;7.60;2.85;;;;;;;23.56;57.10;100970.66;4989435;28;20050;-77
2022/09/11 01:04:53;;;;;;;5.68;2.55;;;;;;;23.51;56.45;100947.97;4990461;28;20050;-77
2022/09/11 01:07:21;;;;;;;9.30;3.45;;;;;;;23.56;56.20;100959.81;4989531;28;20141;-77
2022/09/11 01:09:50;;;;;;;12.45;2.42;;;;;;;23.53;56.45;100954.00;4989067;28;20516;-76
2022/09/11 01:12:26;;;;;;;8.60;2.78;;;;;;;23.44;56.30;100939.84;4989412;28;20740;-76
2022/09/11 01:15:01;;;;;;;9.43;2.60;;;;;;;23.55;55.89;100960.88;4989347;28;20072;-78
2022/09/11 01:17:40;;;;;;;13.82;2.95;;;;;;;22.91;56.06;100869.53;4989386;28;20148;-77
2022/09/11 01:20:23;;;;;;;6.68;3.00;;;;;;;23.62;55.63;100980.66;4989499;28;20571;-77
2022/09/11 01:23:11;;;;;;;8.30;2.60;;;;;;;23.49;55.72;100960.88;4989633;28;20358;-77
2022/09/11 01:26:06;;;;;;;8.40;2.33;;;;;;;23.59;56.19;100983.81;4989533;28;20046;-77
2022/09/11 01:28:45;;;;;;;7.50;3.10;;;;;;;24.05;58.01;100982.78;5006486;28;20042;-78
2022/09/11 01:31:16;;;;;;;8.98;3.50;;;;;;;24.23;58.35;100992.09;4989285;28;20065;-78
2022/09/11 01:33:49;;;;;;;8.75;4.20;;;;;;;24.22;57.76;100995.84;4989367;28;20053;-77
2022/09/11 01:36:18;;;;;;;8.10;3.40;;;;;;;24.08;58.41;101004.06;4989216;28;20056;-78
2022/09/11 01:38:50;;;;;;;13.95;4.78;;;;;;;23.77;58.53;100982.31;5005023;28;20060;-77
2022/09/11 01:41:25;;;;;;;8.98;4.13;;;;;;;23.76;59.33;101018.56;4989282;28;20058;-88
2022/09/11 01:44:02;;;;;;;14.27;3.72;;;;;;;23.20;59.91;100955.72;4991503;28;20561;-77
2022/09/11 01:46:34;;;;;;;10.70;3.80;;;;;;;23.42;60.46;101023.22;4993072;28;20501;-77
2022/09/11 01:49:12;;;;;;;10.90;4.88;;;;;;;23.14;60.21;100964.72;4992752;28;20054;-77
2022/09/11 01:51:40;;;;;;;11.82;3.92;;;;;;;23.36;60.42;101037.63;4993248;28;20062;-78
2022/09/11 01:54:14;;;;;;;8.10;4.05;;;;;;;22.90;60.20;100981.56;4992747;28;20578;-78
2022/09/11 01:56:48;;;;;;;7.35;3.80;;;;;;;23.12;60.52;101039.09;5010629;28;20355;-78
2022/09/11 01:59:19;;;;;;;11.23;4.07;;;;;;;22.95;60.53;101017.81;5010521;28;20052;-78
2022/09/11 02:01:50;;;;;;;8.63;3.35;;;;;;;;;;4992229;28;20049;-77
2022/09/11 02:04:33;;;;;;;7.95;3.47;;;;;;;22.95;60.86;101038.63;4992365;28;20050;-77
2022/09/11 02:07:09;;;;;;;13.48;3.75;;;;;;;22.88;61.10;101033.22;4992185;28;20128;-77
2022/09/11 02:09:46;;;;;;;10.35;4.22;;;;;;;22.67;61.71;101011.72;4992577;28;20080;-78
2022/09/11 02:12:15;;;;;;;10.90;4.47;;;;;;;22.69;62.12;101013.19;5009819;28;20045;-77
2022/09/11 02:14:45;;;;;;;8.07;4.68;;;;;;;22.53;62.56;100997.38;4992152;28;20050;-78
2022/09/11 02:17:35;;;;;;;12.73;4.82;;;;;;;22.81;62.79;101025.06;4992134;28;20053;-77
2022/09/11 02:20:02;;;;;;;8.23;4.93;;;;;;;23.19;62.53;101008.25;4991912;28;20133;-77
2022/09/11 02:22:29;;;;;;;10.98;5.50;;;;;;;23.12;61.87;101023.66;4991614;28;20052;-77
2022/09/11 02:24:56;;;;;;;13.55;5.60;;;;;;;22.68;62.69;100979.06;4991944;28;20633;-77
2022/09/11 02:27:26;;;;;;;9.52;5.88;;;;;;;22.69;63.21;101004.25;4991800;28;20060;-78
2022/09/11 02:29:54;;;;;;;9.75;4.72;;;;;;;22.75;63.74;101027.78;4991720;28;20387;-78
2022/09/11 02:32:25;;;;;;;10.23;6.07;;;;;;;22.70;63.89;101030.28;4991822;28;20061;-78
2022/09/11 02:34:54;;;;;;;15.82;5.93;;;;;;;22.68;64.04;101037.78;4992082;28;20054;-78
2022/09/11 02:37:38;;;;;;;8.15;5.53;;;;;;;22.69;64.24;101044.84;5009360;28;20445;-77
2022/09/11 02:40:13;;;;;;;8.68;5.75;;;;;;;22.35;64.03;100981.72;4991882;28;20254;-77
2022/09/11 02:42:58;;;;;;;10.10;5.95;;;;;;;22.87;63.62;101041.56;5008096;28;20057;-77
2022/09/11 02:46:02;;;;;;;11.98;5.72;;;;;;;22.78;63.40;101041.72;4991460;28;20053;-78
2022/09/11 02:49:14;;;;;;;8.38;5.20;;;;;;;22.73;63.43;101046.09;4991377;28;20076;-77
2022/09/11 02:51:40;;;;;;;8.15;5.47;;;;;;;22.38;63.68;100998.38;4947120;28;20141;-77
2022/09/11 02:54:22;;;;;;;10.98;5.65;;;;;;;22.77;62.79;101050.91;4990729;28;20133;-80
2022/09/11 02:57:27;;;;;;;9.52;4.75;;;;;;;22.75;62.88;101055.69;4991390;28;20049;-76
2022/09/11 02:59:59;;;;;;;7.53;4.40;;;;;;;22.82;62.51;101029.47;4991480;28;20120;-77
2022/09/11 03:02:29;;;;;;;5.00;4.03;;;;;;;22.73;61.38;101025.28;5008629;28;20206;-77
2022/09/11 03:04:56;;;;;;;6.03;3.92;;;;;;;22.55;61.87;101016.91;4991254;28;20050;-78
2022/09/11 03:07:24;;;;;;;6.80;5.05;;;;;;;22.19;61.30;100963.97;4991304;28;20074;-77
2022/09/11 03:09:51;;;;;;;9.48;5.22;;;;;;;22.54;61.65;101034.19;4991253;28;20064;-75
2022/09/11 03:12:18;;;;;;;5.00;3.67;;;;;;;22.39;61.42;101039.78;4990771;28;20046;-76
2022/09/11 03:14:45;;;;;;;5.43;3.42;;;;;;;22.48;62.67;101043.16;4991421;28;20052;-76
2022/09/11 03:17:12;;;;;;;5.68;3.78;;;;;;;22.52;61.36;101030.88;4990957;28;20136;-77
2022/09/11 03:19:38;;;;;;;8.55;3.80;;;;;;;22.61;60.58;101033.16;4991221;28;20041;-76
2022/09/11 03:22:05;;;;;;;10.65;4.05;;;;;;;22.57;60.38;101029.22;4991027;28;20053;-75
2022/09/11 03:24:32;;;;;;;8.02;3.47;;;;;;;22.40;60.04;101034.19;4992551;28;20084;-75
2022/09/11 03:26:58;;;;;;;11.73;3.30;;;;;;;22.32;60.40;101039.75;4991404;28;20413;-77
2022/09/11 03:29:25;;;;;;;4.65;3.40;;;;;;;22.32;59.85;101028.09;4990606;28;20066;-76
2022/09/11 03:31:51;;;;;;;6.55;3.38;;;;;;;22.20;59.93;101022.44;4990638;28;20050;-76
2022/09/11 03:34:18;;;;;;;5.45;2.83;;;;;;;22.02;60.39;101014.88;4990471;28;20050;-76
2022/09/11 03:36:46;;;;;;;5.78;3.10;;;;;;;21.75;60.26;100973.41;4990553;28;20086;-76
2022/09/11 03:39:13;;;;;;;8.88;3.10;;;;;;;22.03;60.56;101029.22;4990308;28;20132;-76
2022/09/11 03:41:39;;;;;;;7.43;2.72;;;;;;;22.00;60.36;101029.63;4990392;28;20136;-78
2022/09/11 03:44:07;;;;;;;4.60;2.90;;;;;;;22.08;60.23;101043.78;4990525;28;20271;-75
2022/09/11 03:46:33;;;;;;;9.23;3.00;;;;;;;22.10;60.20;101035.50;4990219;28;20057;-76
2022/09/11 03:49:01;;;;;;;6.22;2.83;;;;;;;22.08;59.86;101032.97;5006476;28;20045;-76
2022/09/11 03:51:30;;;;;;;4.85;3.22;;;;;;;21.96;60.54;101018.38;4990276;28;20422;-76
2022/09/11 03:53:59;;;;;;;7.55;3.10;;;;;;;22.12;60.25;101046.94;4990537;28;20088;-76
2022/09/11 03:56:27;;;;;;;3.42;2.70;;;;;;;22.23;60.17;101065.31;4990293;28;20056;-77
2022/09/11 03:58:56;;;;;;;9.13;3.70;;;;;;;22.13;60.03;101051.31;4990065;28;20133;-76
2022/09/11 04:01:23;;;;;;;4.85;2.95;;;;;;;22.29;61.91;101064.50;4990097;28;20053;-76
2022/09/11 04:03:50;;;;;;;6.00;3.03;;;;;;;22.37;60.31;101075.13;4990024;28;20649;-76
2022/09/11 04:06:16;;;;;;;9.07;3.20;;;;;;;22.36;59.85;101061.84;4989072;28;20054;-76
2022/09/11 04:08:44;;;;;;;3.47;2.80;;;;;;;22.19;60.78;101028.88;4990027;28;20052;-75
2022/09/11 04:11:10;;;;;;;4.10;3.20;;;;;;;22.39;60.85;101046.03;4990163;28;20525;-77
2022/09/11 04:13:40;;;;;;;3.13;2.50;;;;;;;22.64;60.41;101060.88;4989701;28;20053;-78
2022/09/11 04:16:11;;;;;;;7.88;3.55;;;;;;;22.63;59.91;101041.09;4990676;28;20128;-78
2022/09/11 04:18:39;;;;;;;9.07;3.47;;;;;;;22.76;59.28;101067.34;5007508;28;20144;-78
2022/09/11 04:21:08;;;;;;;5.30;3.67;;;;;;;22.78;58.59;101076.09;4990103;28;20079;-77
2022/09/11 04:23:35;;;;;;;6.20;3.22;;;;;;;22.63;58.53;101078.16;5007079;28;20050;-78
2022/09/11 04:26:11;;;;;;;10.68;3.50;;;;;;;22.22;59.30;101050.13;4989721;28;20052;-78
2022/09/11 04:28:38;;;;;;;4.03;3.22;;;;;;;22.43;60.18;101083.47;5006798;28;20053;-79
2022/09/11 04:31:05;;;;;;;4.47;3.15;;;;;;;22.23;59.74;101049.09;4989964;28;20042;-78
2022/09/11 04:33:33;;;;;;;7.10;3.45;;;;;;;22.34;59.75;101072.03;4989771;28;20383;-78
2022/09/11 04:36:09;;;;;;;7.25;3.00;;;;;;;22.34;59.42;101056.63;4989689;28;20144;-78
2022/09/11 04:38:36;;;;;;;7.53;4.15;;;;;;;22.22;59.59;101044.72;4993461;28;20042;-80
2022/09/11 04:41:06;;;;;;;3.42;3.13;;;;;;;22.60;59.72;101098.34;4991660;28;20483;-78
2022/09/11 04:43:34;;;;;;;5.28;3.08;;;;;;;22.60;59.68;101101.88;4990012;28;20057;-77
2022/09/11 04:46:15;;;;;;;9.18;5.55;;;;;;;22.20;60.33;101025.16;4989279;28;20071;-79
2022/09/11 04:48:43;;;;;;;6.55;3.30;;;;;;;22.58;59.47;101092.28;4989232;28;20050;-77
2022/09/11 04:51:19;;;;;;;7.93;3.45;;;;;;;22.49;59.45;101085.38;4988850;28;20058;-78
2022/09/11 04:53:47;;;;;;;5.97;3.00;;;;;;;22.43;59.22;101094.28;5006653;28;20458;-77
2022/09/11 04:56:13;;;;;;;5.25;2.67;;;;;;;22.54;59.23;101107.25;4989139;28;20050;-78
2022/09/11 04:58:41;;;;;;;8.35;3.03;;;;;;;22.48;59.36;101108.06;4989408;28;20132;-78
2022/09/11 05:01:14;;;;;;;5.40;3.13;;;;;;;22.27;59.34;101088.22;4989495;28;20063;-78
2022/09/11 05:03:44;;;;;;;4.85;2.75;;;;;;;22.40;59.69;101114.47;4989754;28;20066;-78
2022/09/11 05:06:15;;;;;;;3.85;3.17;;;;;;;22.32;59.68;101093.84;4989851;28;20054;-76
2022/09/11 05:08:43;;;;;;;7.18;3.45;;;;;;;22.27;59.79;101096.31;5007003;28;20046;-76
2022/09/11 05:11:12;;;;;;;6.45;3.22;;;;;;;22.37;59.68;101106.78;4989145;28;20098;-76
2022/09/11 05:13:40;;;;;;;4.20;2.80;;;;;;;22.34;59.87;101124.25;4989016;28;20046;-77
2022/09/11 05:16:12;;;;;;;4.80;3.00;;;;;;;21.80;59.89;101035.78;4990894;28;20343;-76
2022/09/11 05:18:41;;;;;;;5.43;2.63;;;;;;;22.28;60.17;101129.59;4990846;28;20221;-76
2022/09/11 05:21:13;;;;;;;4.35;2.50;;;;;;;22.26;60.24;101129.81;4989323;28;20198;-76
2022/09/11 05:23:41;;;;;;;7.55;3.47;;;;;;;22.17;60.29;101123.72;4989045;28;20607;-76
2022/09/11 05:26:32;;;;;;;5.97;2.90;;;;;;;22.31;61.16;101130.06;5006415;28;20050;-78
2022/09/11 05:29:27;;;;;;;5.93;2.65;;;;;;;22.40;59.61;101130.69;4981732;28;20054;-77
2022/09/11 05:31:58;;;;;;;4.65;2.75;;;;;;;22.43;60.68;101115.94;4989693;28;20180;-77
2022/09/11 05:34:27;;;;;;;3.20;2.53;;;;;;;22.55;59.39;101135.97;4988740;28;20089;-78
2022/09/11 05:36:58;;;;;;;6.60;2.90;;;;;;;22.36;59.38;101103.25;4989008;28;20379;-78
2022/09/11 05:39:24;;;;;;;4.25;2.45;;;;;;;22.57;60.40;101144.72;4988859;28;20064;-77
2022/09/11 05:41:52;;;;;;;7.85;2.83;;;;;;;22.38;59.24;101121.97;4989069;28;20366;-77
2022/09/11 05:44:19;;;;;;;3.28;2.33;;;;;;;22.17;59.89;101064.22;4988985;28;20380;-76
2022/09/11 05:46:47;;;;;;;4.30;2.45;;;;;;;22.39;59.22;101102.00;5005936;28;20049;-77
2022/09/11 05:49:14;;;;;;;3.95;2.50;;;;;;;22.57;59.08;101144.72;5006192;28;20050;-78
2022/09/11 05:51:41;;;;;;;7.93;2.65;;;;;;;22.57;58.98;101139.31;5006092;28;20046;-78
2022/09/11 05:54:08;;;;;;;5.35;2.60;;;;;;;22.50;59.18;101133.03;4988711;28;20147;-78
2022/09/11 05:56:34;;;;;;;5.50;3.03;;;;;;;22.59;58.75;101131.81;4988858;28;20354;-77
2022/09/11 05:59:01;;;;;;;9.48;3.33;;;;;;;22.55;59.52;101141.38;4988886;28;20048;-77
2022/09/11 06:01:29;;;;;;;7.32;3.25;;;;;;;22.52;59.62;101141.78;4988692;28;20069;-77
2022/09/11 06:03:56;;;;;;;4.93;3.08;;;;;;;22.34;59.72;101126.13;4988309;28;20056;-77
2022/09/11 06:06:24;;;;;;;8.95;2.70;;;;;;;22.48;60.19;101146.78;4988789;28;20054;-77
2022/09/11 06:08:51;;;;;;;8.52;3.03;;;;;;;22.44;60.46;101131.97;4988356;28;20046;-78
2022/09/11 06:11:20;;;;;;;9.48;3.20;;;;;;;22.76;60.96;101151.25;4988534;28;20497;-76
2022/09/11 06:13:48;;;;;;;10.90;3.20;;;;;;;22.55;59.63;101109.75;4988519;28;20523;-76
2022/09/11 06:16:20;;;;;;;9.38;2.90;;;;;;;22.85;58.67;101152.72;4988935;28;20060;-78
2022/09/11 06:18:48;;;;;;;7.57;2.58;;;;;;;22.68;58.63;101149.56;4988550;28;20124;-78
2022/09/11 06:21:20;;;;;;;4.40;3.05;;;;;;;22.54;58.15;101128.91;5006109;28;20169;-78
2022/09/11 06:23:51;;;;;;;6.47;2.35;;;;;;;22.51;58.88;101134.72;4987475;28;20042;-78
2022/09/11 06:26:21;;;;;;;5.10;2.25;;;;;;;22.58;58.36;101146.41;5000868;28;20057;-77
2022/09/11 06:28:48;;;;;;;3.40;2.28;;;;;;;22.58;58.49;101122.03;5005027;28;20052;-77
2022/09/11 06:31:17;;;;;;;9.43;2.53;;;;;;;22.40;57.66;101080.16;5008112;28;20450;-78
2022/09/11 06:33:45;;;;;;;3.58;1.92;;;;;;;22.61;57.94;101118.94;5008112;28;20046;-78
2022/09/11 06:36:13;;;;;;;7.45;2.30;;;;;;;22.86;58.36;101142.72;5008034;28;20497;-78
2022/09/11 06:38:40;;;;;;;4.25;1.80;;;;;;;23.03;59.09;101146.75;5010345;28;20057;-78
2022/09/11 06:41:11;;;;;;;3.97;1.98;;;;;;;22.97;57.85;101139.44;5008583;28;20038;-78
2022/09/11 06:43:38;;;;;;;;;;;;;;;23.01;58.10;101146.97;5011384;28;20136;-80
2022/09/11 06:46:06;;;;;;;4.88;2.13;;;;;;;23.00;57.76;101139.03;5008638;28;20023;-79
2022/09/11 06:48:33;;;;;;;5.03;1.80;;;;;;;22.81;57.33;101114.38;5005002;28;20046;-78
2022/09/11 06:51:04;;;;;;;4.03;1.80;;;;;;;22.59;57.66;101092.06;4991407;28;20201;-77
2022/09/11 06:53:30;;;;;;;3.88;1.88;;;;;;;22.66;58.34;101100.22;4991368;28;20050;-79
2022/09/11 06:56:01;;;;;;;3.38;1.83;;;;;;;23.00;58.36;101141.75;4991385;28;20053;-77
2022/09/11 06:58:29;;;;;;;4.83;2.03;;;;;;;23.06;57.30;101159.91;4991499;28;20659;-77
2022/09/11 07:01:08;;;;;;;8.00;2.40;;;;;;;23.09;57.14;101148.66;5008563;28;20543;-77
2022/09/11 07:03:36;;;;;;;5.85;1.92;;;;;;;23.12;57.86;101161.78;4991006;28;20057;-77
2022/09/11 07:06:05;;;;;;;6.82;1.83;;;;;;;23.08;56.60;101152.38;5008693;28;20524;-77
2022/09/11 07:08:31;;;;;;;3.08;2.03;;;;;;;22.95;57.16;101136.09;4994007;28;20081;-78
2022/09/11 07:11:05;;;;;;;5.35;1.80;;;;;;;23.10;57.92;101114.28;4992697;28;20056;-78
2022/09/11 07:13:33;;;;;;;7.75;2.47;;;;;;;23.39;55.90;101151.78;5008745;28;20433;-79
2022/09/11 07:16:06;;;;;;;3.90;2.27;;;;;;;23.46;56.00;101149.09;5009142;28;20060;-78
2022/09/11 07:18:38;;;;;;;5.35;2.15;;;;;;;22.99;54.60;101067.81;5008414;28;20680;-79
2022/09/11 07:21:10;;;;;;;;;;;;;;;23.54;55.01;101173.25;4991493;28;20502;-77
2022/09/11 07:23:37;;;;;;;14.15;2.78;;;;;;;23.58;56.15;101174.53;4991236;28;20300;-79
2022/09/11 07:26:06;;;;;;;5.25;2.17;;;;;;;23.68;56.53;101169.50;4990767;28;20050;-78
2022/09/11 07:28:33;;;;;;;3.25;2.00;;;;;;;23.77;55.17;101172.88;5008540;28;20285;-77
2022/09/11 07:31:12;;;;;;;4.45;1.90;;;;;;;23.72;55.15;101163.69;4990911;28;20272;-77
2022/09/11 07:33:47;;;;;;;4.05;1.92;;;;;;;23.80;56.01;101166.22;4991640;28;20053;-78
2022/09/11 07:36:23;;;;;;;2.15;1.92;;;;;;;23.88;55.33;101174.97;4990694;28;20050;-78
2022/09/11 07:38:51;;;;;;;4.82;1.83;;;;;;;23.94;53.76;101148.88;4971454;28;20526;-78
2022/09/11 07:41:19;;;;;;;4.25;2.30;;;;;;;24.03;53.34;101172.03;4988302;28;20047;-78
2022/09/11 07:43:47;;;;;;;2.50;2.05;;;;;;;23.97;54.65;101167.44;4971722;28;20076;-78
2022/09/11 07:46:14;;;;;;;5.63;1.67;;;;;;;23.71;55.71;101053.59;4988839;28;20242;-78
2022/09/11 07:48:41;;;;;;;2.83;1.70;;;;;;;24.56;53.49;101148.50;4977448;28;20429;-79
2022/09/11 07:51:11;;;;;;;3.55;1.65;;;;;;;24.60;53.19;101155.16;4990617;28;20089;-79
2022/09/11 07:53:44;;;;;;;4.18;2.00;;;;;;;24.68;53.22;101163.06;4990463;28;20053;-79
2022/09/11 07:56:17;;;;;;;3.33;1.60;;;;;;;24.86;54.99;101168.63;5007845;28;20042;-78
2022/09/11 07:58:44;;;;;;;3.42;1.80;;;;;;;24.79;52.28;101156.13;4990392;28;20053;-77
2022/09/11 08:01:14;;;;;;;2.40;1.50;;;;;;;24.83;53.60;101166.34;4990603;28;20045;-78
2022/09/11 08:03:42;;;;;;;4.68;2.00;;;;;;;24.74;51.31;101154.88;4989943;28;20061;-78
2022/09/11 08:06:17;;;;;;;6.72;2.35;;;;;;;24.78;52.84;101162.59;5007978;28;20045;-78
2022/09/11 08:08:52;;;;;;;3.40;1.80;;;;;;;25.14;53.20;101200.00;5007366;28;20068;-80
2022/09/11 08:11:19;;;;;;;;;;;;;;;25.01;49.23;101191.94;4990579;28;20417;-77
2022/09/11 08:13:49;;;;;;;2.80;2.25;;;;;;;24.67;51.07;101177.69;4990127;28;19921;-78
2022/09/11 08:16:21;;;;;;;4.82;1.90;;;;;;;24.53;51.51;101185.88;5007795;28;20567;-79
2022/09/11 08:18:48;;;;;;;3.22;1.58;;;;;;;24.77;53.68;101207.91;5007322;28;20468;-79
2022/09/11 08:21:15;;;;;;;5.18;1.70;;;;;;;25.10;53.89;101199.59;4989851;28;20100;-78
2022/09/11 08:23:43;;;;;;;3.97;1.70;;;;;;;24.86;53.05;101149.59;4989700;28;20137;-79
2022/09/11 08:26:13;;;;;;;3.15;1.45;;;;;;;25.50;53.30;101209.41;4989786;28;20112;-79
2022/09/11 08:28:41;;;;;;;2.90;1.45;;;;;;;25.14;49.46;101148.38;4989768;28;20050;-78
2022/09/11 08:31:09;;;;;;;3.97;1.45;;;;;;;24.94;47.90;101149.34;4989897;28;20545;-77
2022/09/11 08:33:36;;;;;;;3.10;1.60;;;;;;;25.25;51.07;101207.47;4990246;28;20054;-77
2022/09/11 08:36:05;;;;;;;2.20;1.38;;;;;;;24.92;48.59;101154.16;4989423;28;20489;-77
2022/09/11 08:38:32;;;;;;;2.13;1.13;;;;;;;25.36;50.90;101208.66;4989298;28;20454;-78
2022/09/11 08:41:29;;;;;;;4.05;1.23;;;;;;;25.26;49.89;101200.16;5007139;28;20397;-77
2022/09/11 08:43:57;;;;;;;1.17;1.08;;;;;;;25.48;50.15;101204.19;4989329;28;20711;-77
2022/09/11 08:46:29;;;;;;;2.08;1.42;;;;;;;25.48;50.58;101206.06;4990044;28;20532;-78
2022/09/11 08:49:33;;;;;;;3.53;1.77;;;;;;;25.68;51.36;101214.06;5010868;28;20050;-77
2022/09/11 08:52:02;;;;;;;2.92;1.70;;;;;;;25.59;51.87;101202.66;5006603;28;20054;-77
2022/09/11 08:54:35;;;;;;;4.15;1.20;;;;;;;25.71;51.04;101209.03;5007243;28;20457;-78
2022/09/11 08:57:17;;;;;;;1.80;1.38;;;;;;;26.04;52.47;101223.41;5005529;28;20054;-78
2022/09/11 08:59:56;;;;;;;5.20;1.60;;;;;;;25.66;51.28;101167.25;4999871;28;20050;-81
2022/09/11 09:02:26;;;;;;;7.57;2.28;;;;;;;25.87;49.02;101225.84;5013307;28;20371;-80
2022/09/11 09:05:14;;;;;;;2.83;1.30;;;;;;;25.67;50.85;101232.25;5026909;28;20618;-78
2022/09/11 09:08:08;;;;;;;1.77;1.40;;;;;;;25.45;51.52;101173.91;5009170;28;20049;-78
2022/09/11 09:10:38;;;;;;;2.60;1.20;;;;;;;25.51;51.03;101173.00;4991038;28;20402;-78
2022/09/11 09:13:22;;;;;;;2.17;1.60;;;;;;;25.61;49.73;101230.44;5001175;28;20075;-77
2022/09/11 09:16:26;;;;;;;1.90;1.30;;;;;;;25.91;48.50;101227.09;5008535;28;20078;-79
2022/09/11 09:19:00;;;;;;;1.98;1.33;;;;;;;26.07;52.07;101231.97;5006120;28;20058;-79
2022/09/11 09:21:33;;;;;;;2.92;1.10;;;;;;;26.02;51.08;101231.78;4999881;28;20078;-78
2022/09/11 09:24:04;;;;;;;5.78;1.10;;;;;;;25.81;51.75;101219.41;5006895;28;20549;-78
2022/09/11 09:26:38;;;;;;;2.60;1.33;;;;;;;25.34;49.86;101167.28;4989350;28;20068;-78
2022/09/11 09:29:13;;;;;;;1.40;1.02;;;;;;;25.93;50.97;101231.25;4988942;28;20132;-78
2022/09/11 09:31:43;;;;;;;3.30;1.38;;;;;;;25.72;48.66;101197.09;4969514;28;20050;-79
2022/09/11 09:34:16;;;;;;;2.40;1.25;;;;;;;25.99;51.41;101234.94;4984810;28;20057;-79
2022/09/11 09:36:49;;;;;;;1.85;1.10;;;;;;;25.80;51.04;101145.16;4988525;28;20429;-77
2022/09/11 09:39:17;;;;;;;1.63;1.23;;;;;;;26.23;49.27;101216.94;4988585;28;20190;-79
2022/09/11 09:42:02;;;;;;;3.05;1.42;;;;;;;26.61;50.32;101221.38;4988032;28;20058;-78
2022/09/11 09:44:56;;;;;;;1.15;0.90;;;;;;;26.61;42.56;101219.47;5004822;28;20137;-78
2022/09/11 09:47:23;;;;;;;3.08;1.27;;;;;;;26.43;49.37;101208.53;4988553;28;20409;-79
2022/09/11 09:49:51;;;;;;;2.25;1.30;;;;;;;26.65;49.48;101214.38;4988509;28;20042;-79
2022/09/11 09:52:20;;;;;;;3.08;1.35;;;;;;;26.69;49.84;101217.50;4988674;28;20046;-79
2022/09/11 09:55:01;;;;;;;3.03;1.30;;;;;;;26.60;46.58;101209.66;4988418;28;20144;-79
2022/09/11 09:57:31;;;;;;;2.60;1.10;;;;;;;26.44;45.51;101215.66;4988243;28;20081;-79
2022/09/11 10:00:20;;;;;;;1.48;1.20;;;;;;;26.83;48.35;101203.47;5006353;28;20112;-77
2022/09/11 10:02:56;;;;;;;2.67;1.30;;;;;;;26.49;44.65;101161.38;4984234;28;20085;-79
2022/09/11 10:05:43;;;;;;;1.45;1.25;;;;;;;26.79;46.18;101174.19;4989123;28;20472;-79
2022/09/11 10:08:35;;;;;;;1.95;1.13;;;;;;;27.12;44.02;101205.63;4992387;28;20061;-79
2022/09/11 10:11:09;;;;;;;1.95;1.10;;;;;;;27.03;46.96;101188.75;4991850;28;20069;-79
2022/09/11 10:13:41;;;;;;;4.78;1.20;;;;;;;27.32;47.08;101192.53;4992083;28;20082;-80
2022/09/11 10:16:23;;;;;;;7.18;1.40;;;;;;;26.87;41.38;101138.50;4992014;28;20494;-78
2022/09/11 10:18:50;;;;;;;1.38;0.80;;;;;;;27.22;41.90;101186.84;5009654;28;20532;-81
2022/09/11 10:21:29;;;;;;;1.67;1.15;;;;;;;27.32;43.36;101192.53;4991890;28;20513;-79
2022/09/11 10:24:18;;;;;;;3.75;1.52;;;;;;;27.43;42.16;101191.75;4991484;28;20065;-79
2022/09/11 10:26:49;;;;;;;4.15;1.27;;;;;;;27.42;41.58;101184.63;4990744;28;20057;-80
2022/09/11 10:29:28;;;;;;;1.35;0.93;;;;;;;26.41;42.48;100991.03;4991728;28;20486;-79
2022/09/11 10:31:58;;;;;;;1.80;1.20;;;;;;;27.65;41.74;101185.72;4991676;28;20143;-79
2022/09/11 10:34:26;;;;;;;2.25;1.15;;;;;;;27.94;43.50;101144.94;4991757;28;20065;-78
2022/09/11 10:36:55;;;;;;;3.22;1.25;;;;;;;27.83;41.74;101163.00;4991446;28;20078;-79
2022/09/11 10:39:24;;;;;;;2.25;1.17;;;;;;;27.94;40.54;101177.69;4991838;28;20162;-80
2022/09/11 10:41:57;;;;;;;2.08;1.05;;;;;;;27.96;40.90;101172.81;4989998;28;20053;-81
2022/09/11 10:44:26;;;;;;;2.88;1.13;;;;;;;28.22;42.44;101150.47;4990455;28;20400;-80
2022/09/11 10:47:02;;;;;;;4.63;1.65;;;;;;;28.20;41.33;101177.19;4990888;28;20133;-79
2022/09/11 10:49:29;;;;;;;1.83;1.48;;;;;;;28.17;41.23;101111.34;4992858;28;20046;-80
2022/09/11 10:52:08;;;;;;;1.23;1.10;;;;;;;28.52;42.76;101182.25;4996990;28;20046;-82
2022/09/11 10:54:54;;;;;;;1.98;1.15;;;;;;;28.45;43.27;101165.13;4997714;28;20145;-80
2022/09/11 10:57:39;;;;;;;2.00;1.20;;;;;;;28.57;42.38;101174.19;5011052;28;20052;-79
2022/09/11 11:00:28;;;;;;;1.95;1.20;;;;;;;28.38;42.29;101159.00;4991514;28;20057;-79
2022/09/11 11:03:21;;;;;;;3.13;1.38;;;;;;;28.30;41.82;101171.97;4991001;28;20064;-80
2022/09/11 11:06:19;;;;;;;4.10;1.52;;;;;;;28.45;39.77;101170.59;4984868;28;20069;-80
2022/09/11 11:09:10;;;;;;;4.78;1.50;;;;;;;28.67;39.81;101173.56;4990964;28;20490;-78
2022/09/11 11:11:59;;;;;;;6.63;2.05;;;;;;;28.42;39.01;101119.22;5007945;28;20498;-79
2022/09/11 11:14:57;;;;;;;1.95;1.65;;;;;;;28.98;38.70;101167.59;4990503;28;20060;-79
2022/09/11 11:18:02;;;;;;;7.13;1.60;;;;;;;28.97;38.51;101162.38;4991281;28;20056;-78
2022/09/11 11:20:49;;;;;;;1.35;1.25;;;;;;;28.83;39.59;101109.09;4990871;28;20081;-79
2022/09/11 11:23:28;;;;;;;2.25;1.67;;;;;;;29.27;39.70;101155.81;4990784;28;20056;-76
2022/09/11 11:26:04;;;;;;;3.80;1.20;;;;;;;29.10;39.00;101162.06;4990444;28;20484;-79
2022/09/11 11:28:30;;;;;;;1.88;1.58;;;;;;;29.36;38.62;101170.72;4990725;28;20046;-80
2022/09/11 11:31:26;;;;;;;1.98;1.60;;;;;;;29.08;40.68;101147.84;4990453;28;20077;-78
2022/09/11 11:34:13;;;;;;;2.97;1.63;;;;;;;28.97;40.22;101171.38;4990463;28;20054;-80
2022/09/11 11:36:47;;;;;;;2.38;1.65;;;;;;;29.13;41.65;101160.78;4990310;28;20046;-79
2022/09/11 11:39:35;;;;;;;1.30;1.20;;;;;;;28.93;41.31;101098.34;4990296;28;20077;-81
2022/09/11 11:42:09;;;;;;;3.05;1.63;;;;;;;29.22;41.48;101136.59;5007939;28;20046;-79
2022/09/11 11:44:47;;;;;;;2.65;1.58;;;;;;;29.18;41.91;101104.28;4999457;28;20056;-79
2022/09/11 11:47:17;;;;;;;5.32;1.80;;;;;;;29.17;40.61;101160.00;5010025;28;20081;-78
2022/09/11 11:49:56;;;;;;;4.28;1.85;;;;;;;28.96;39.41;101115.09;4994521;28;20065;-78
2022/09/11 11:52:29;;;;;;;6.25;1.85;;;;;;;29.59;38.43;101167.84;5008180;28;20136;-78